La Villita, New Mexico
Current Conditions -  °F | °C
As of 12:35 PM on Wednesday 17 Dec 2014 (Local Time) from KLAM Reporting Station
Light Snow Light Snow  
Wind Chill: 31°   Ceiling: 200
Heat Index: 31°   Visibility: 0mi
Dew Point: 31°   Wind: 3mph
Humidity: 100%   Direction: 60°ENE
Pressure: 29.97"   Gusts: NA
Location:  36.1112°N, 106.046°W
Report Text: KLAM 171935Z AUTO 06003KT M1/4SM -SN OVC002 00/00 A2997 RMK AO2 T10051005
Loading
Personal Weather Stations






























Interactive Weather Map New forecast layout! Learn more

10-Day Weather Forecast

Advertisements
Track Severe Weather on mobile